Terminal Aerodrome Forecast
Issued by NWS

Home | Current Version | Previous Version | Text Only | Print | Product List | Glossary On
Versions: 1 2 3 4 5 6 7 8 9 10 11 12 13 14 15 16 17 18
000
FTUS43 KIND 292300 AAA
TAFLAF
TAF AMD
KLAF 292335Z 3000/3024 VRB02KT P6SM SCT030 BKN080
      TEMPO 3000/3002 5SM TSRA BKN030CB
     FM300200 VRB02KT P6SM SCT030 BKN050
     FM300800 VRB02KT 5SM BR OVC010
     FM301600 27008KT P6SM BKN035 PROB30 3018/3024 3SM TSRA OVC030CB
      AMD LTD TO CLD VIS AND WIND 3001/3013=

USA.gov is the U.S. government's official web portal to all federal, state and local government web resources and services.